createdAt,value
2019-01-21T00:00:16.120Z,1.30
2019-01-21T00:02:44.445Z,1.30
2019-01-21T00:05:11.021Z,1.30
2019-01-21T00:07:37.890Z,1.30
2019-01-21T00:10:04.570Z,1.30
2019-01-21T00:12:31.296Z,0.80
2019-01-21T00:15:00.878Z,1.20
2019-01-21T00:17:27.575Z,1.20
2019-01-21T00:19:54.675Z,1.20
2019-01-21T00:22:21.945Z,1.20
2019-01-21T00:24:48.654Z,1.20
2019-01-21T00:27:15.410Z,1.20
2019-01-21T00:29:42.129Z,1.20
2019-01-21T00:32:08.789Z,1.10
2019-01-21T00:34:37.361Z,1.10
2019-01-21T00:37:03.958Z,1.10
2019-01-21T00:39:30.677Z,1.10
2019-01-21T00:41:57.301Z,1.10
2019-01-21T00:44:25.911Z,1.10
2019-01-21T00:46:52.456Z,0.60
2019-01-21T00:49:19.495Z,1.10
2019-01-21T00:51:46.633Z,1.10
2019-01-21T00:54:13.359Z,1.10
2019-01-21T00:56:40.461Z,1.00
2019-01-21T00:59:07.208Z,1.00
2019-01-21T01:01:33.834Z,1.00
2019-01-21T01:04:02.455Z,1.00
2019-01-21T01:06:29.177Z,1.00
2019-01-21T01:08:56.915Z,1.00
2019-01-21T01:11:23.517Z,1.00
2019-01-21T01:13:50.388Z,1.00
2019-01-21T01:16:17.867Z,1.00
2019-01-21T01:18:44.978Z,0.90
2019-01-21T01:21:11.568Z,0.90
2019-01-21T01:23:38.218Z,0.90
2019-01-21T01:26:05.018Z,0.90
2019-01-21T01:28:31.862Z,0.90
2019-01-21T01:30:58.610Z,0.90
2019-01-21T01:33:25.666Z,0.50
2019-01-21T01:35:52.716Z,0.90
2019-01-21T01:38:19.523Z,0.90
2019-01-21T01:40:46.266Z,0.90
2019-01-21T01:43:13.364Z,0.90
2019-01-21T01:45:40.228Z,0.80
2019-01-21T01:48:07.122Z,0.80
2019-01-21T01:50:33.824Z,0.80
2019-01-21T01:53:00.495Z,0.80
2019-01-21T01:55:28.753Z,0.80
2019-01-21T01:57:56.627Z,0.80
2019-01-21T02:00:23.219Z,0.80
2019-01-21T02:02:49.919Z,0.80
2019-01-21T02:05:16.562Z,0.80
2019-01-21T02:07:43.176Z,0.80
2019-01-21T02:10:09.773Z,0.80
2019-01-21T02:12:36.348Z,0.70
2019-01-21T02:15:03.180Z,0.60
2019-01-21T02:17:29.755Z,0.70
2019-01-21T02:22:36.698Z,0.60
2019-01-21T02:25:03.471Z,0.70
2019-01-21T02:27:30.883Z,0.70
2019-01-21T02:29:57.633Z,0.70
2019-01-21T02:32:24.648Z,0.70
2019-01-21T02:34:51.395Z,0.70
2019-01-21T02:37:18.521Z,0.60
2019-01-21T02:39:45.163Z,0.70
2019-01-21T02:42:12.178Z,0.60
2019-01-21T02:44:38.894Z,0.60
2019-01-21T02:47:05.513Z,0.60
2019-01-21T02:49:32.497Z,0.60
2019-01-21T02:51:59.369Z,0.60
2019-01-21T02:54:26.010Z,0.60
2019-01-21T02:56:53.048Z,0.60
2019-01-21T02:59:19.717Z,0.60
2019-01-21T03:01:46.547Z,0.60
2019-01-21T03:04:13.242Z,0.60
2019-01-21T03:06:40.024Z,0.50
2019-01-21T03:09:06.617Z,0.60
2019-01-21T03:11:33.376Z,0.60
2019-01-21T03:14:00.193Z,0.50
2019-01-21T03:16:27.240Z,0.50
2019-01-21T03:18:53.930Z,0.50
2019-01-21T03:21:20.782Z,0.50
2019-01-21T03:23:47.823Z,0.50
2019-01-21T03:26:14.795Z,0.50
2019-01-21T03:28:43.227Z,0.50
2019-01-21T03:31:10.108Z,0.50
2019-01-21T03:33:37.182Z,0.50
2019-01-21T03:36:05.722Z,0.40
2019-01-21T03:38:34.421Z,0.20
2019-01-21T03:41:04.293Z,0.40
2019-01-21T03:43:33.339Z,0.40
2019-01-21T03:46:03.217Z,0.40
2019-01-21T03:48:33.280Z,0.40
2019-01-21T03:51:04.574Z,0.40
2019-01-21T03:53:33.222Z,0.40
2019-01-21T03:56:01.056Z,0.40
2019-01-21T03:58:29.454Z,0.40
2019-01-21T04:00:57.499Z,0.40
2019-01-21T04:03:27.609Z,0.30
2019-01-21T04:05:56.547Z,0.30
2019-01-21T04:08:25.382Z,0.30
2019-01-21T04:10:54.010Z,0.30
2019-01-21T04:13:23.139Z,0.30
2019-01-21T04:15:50.927Z,0.30
2019-01-21T04:18:24.491Z,0.30
2019-01-21T04:20:46.870Z,0.30
2019-01-21T04:23:14.571Z,0.30
2019-01-21T04:25:41.258Z,0.30
2019-01-21T04:28:07.937Z,0.30
2019-01-21T04:30:34.693Z,0.30
2019-01-21T04:33:01.805Z,0.30
2019-01-21T04:35:29.005Z,0.30
2019-01-21T04:37:57.244Z,0.30
2019-01-21T04:40:26.222Z,0.30
2019-01-21T04:42:54.244Z,0.30
2019-01-21T04:45:21.074Z,0.40
2019-01-21T04:47:49.646Z,0.20
2019-01-21T04:50:16.460Z,0.20
2019-01-21T04:52:43.242Z,0.20
2019-01-21T04:55:13.720Z,0.20
2019-01-21T04:57:43.519Z,0.20
2019-01-21T05:00:12.224Z,0.20
2019-01-21T05:02:39.216Z,0.20
2019-01-21T05:05:06.191Z,0.20
2019-01-21T05:07:33.005Z,0.20
2019-01-21T05:09:59.662Z,0.20
2019-01-21T05:12:26.448Z,0.20
2019-01-21T05:14:53.242Z,0.10
2019-01-21T05:17:22.382Z,0.10
2019-01-21T05:19:49.603Z,0.10
2019-01-21T05:22:16.542Z,0.10
2019-01-21T05:24:45.038Z,0.10
2019-01-21T05:27:11.760Z,0.10
2019-01-21T05:29:38.483Z,0.10
2019-01-21T05:32:05.325Z,0.10
2019-01-21T05:34:32.380Z,0.10
2019-01-21T05:36:59.031Z,0.10
2019-01-21T05:39:26.751Z,0.10
2019-01-21T05:41:53.508Z,0.10
2019-01-21T05:44:20.279Z,0.10
2019-01-21T05:46:47.251Z,0.10
2019-01-21T05:49:14.063Z,0.10
2019-01-21T05:51:40.587Z,-0.20
2019-01-21T05:54:07.439Z,-0.10
2019-01-21T05:56:34.133Z,0.10
2019-01-21T05:59:02.997Z,0.00
2019-01-21T06:01:30.219Z,0.00
2019-01-21T06:03:56.947Z,0.00
2019-01-21T06:06:23.537Z,0.00
2019-01-21T06:08:50.157Z,0.00
2019-01-21T06:11:16.956Z,0.00
2019-01-21T06:13:43.856Z,0.00
2019-01-21T06:16:10.712Z,0.00
2019-01-21T06:18:38.469Z,0.00
2019-01-21T06:21:05.315Z,0.00
2019-01-21T06:23:32.163Z,0.00
2019-01-21T06:25:58.894Z,0.00
2019-01-21T06:28:25.634Z,-0.10
2019-01-21T06:30:54.495Z,-0.10
2019-01-21T06:33:21.649Z,-0.30
2019-01-21T06:35:48.236Z,0.00
2019-01-21T06:38:15.264Z,-0.10
2019-01-21T06:40:41.868Z,-0.10
2019-01-21T06:43:08.866Z,-0.10
2019-01-21T06:45:35.781Z,-0.10
2019-01-21T06:48:02.520Z,-0.10
2019-01-21T06:50:29.282Z,-0.10
2019-01-21T06:52:55.982Z,-0.10
2019-01-21T06:55:22.587Z,-0.10
2019-01-21T06:57:53.036Z,-0.10
2019-01-21T07:00:22.826Z,-0.10
2019-01-21T07:02:51.152Z,-0.10
2019-01-21T07:05:21.206Z,-0.10
2019-01-21T07:07:48.294Z,-0.10
2019-01-21T07:10:14.946Z,-0.10
2019-01-21T07:12:41.616Z,-0.20
2019-01-21T07:15:08.410Z,-0.20
2019-01-21T07:17:35.634Z,-0.20
2019-01-21T07:20:02.434Z,-0.20
2019-01-21T07:22:29.168Z,-0.20
2019-01-21T07:24:55.970Z,-0.20
2019-01-21T07:27:22.749Z,-0.20
2019-01-21T07:29:49.604Z,-0.20
2019-01-21T07:32:16.221Z,-0.20
2019-01-21T07:34:43.178Z,-0.20
2019-01-21T07:37:09.935Z,-0.20
2019-01-21T07:39:36.670Z,-0.30
2019-01-21T07:42:05.847Z,-0.30
2019-01-21T07:44:32.520Z,-0.30
2019-01-21T07:46:59.565Z,-0.30
2019-01-21T07:49:28.186Z,-0.30
2019-01-21T07:51:55.203Z,-0.30
2019-01-21T07:54:22.448Z,-0.30
2019-01-21T07:56:49.159Z,-0.30
2019-01-21T07:59:17.096Z,-0.30
2019-01-21T08:01:44.001Z,-0.30
2019-01-21T08:04:10.761Z,-0.30
2019-01-21T08:06:37.573Z,-0.30
2019-01-21T08:09:06.056Z,-0.30
2019-01-21T08:11:32.891Z,-0.30
2019-01-21T08:13:59.549Z,-0.30
2019-01-21T08:16:26.273Z,-0.30
2019-01-21T08:18:53.113Z,-0.30
2019-01-21T08:21:19.929Z,-0.40
2019-01-21T08:23:48.792Z,-0.30
2019-01-21T08:26:15.542Z,-0.40
2019-01-21T08:28:42.435Z,-0.40
2019-01-21T08:31:09.511Z,-0.40
2019-01-21T08:33:36.299Z,-0.40
2019-01-21T08:36:03.107Z,-0.40
2019-01-21T08:38:31.147Z,-0.40
2019-01-21T08:40:58.149Z,-0.40
2019-01-21T08:43:25.240Z,-0.40
2019-01-21T08:45:51.909Z,-0.80
2019-01-21T08:48:18.726Z,-0.40
2019-01-21T08:50:45.803Z,-0.40
2019-01-21T08:53:12.673Z,-0.40
2019-01-21T08:55:41.355Z,-0.40
2019-01-21T08:58:07.934Z,-0.40
2019-01-21T09:00:34.677Z,-0.40
2019-01-21T09:03:02.554Z,-0.40
2019-01-21T09:05:29.265Z,-0.40
2019-01-21T09:07:56.210Z,-0.40
2019-01-21T09:10:24.976Z,-0.40
2019-01-21T09:12:51.576Z,-0.40
2019-01-21T09:15:18.257Z,-0.40
2019-01-21T09:17:44.958Z,-0.70
2019-01-21T09:20:11.630Z,-0.40
2019-01-21T09:22:38.292Z,-0.40
2019-01-21T09:25:05.276Z,-0.40
2019-01-21T09:27:32.464Z,-0.40
2019-01-21T09:29:59.243Z,-0.40
2019-01-21T09:32:25.980Z,-0.40
2019-01-21T09:34:54.697Z,-0.30
2019-01-21T09:37:21.453Z,-0.30
2019-01-21T09:39:48.276Z,-0.30
2019-01-21T09:42:14.900Z,-0.30
2019-01-21T09:44:42.169Z,-0.30
2019-01-21T09:47:08.984Z,-0.30
2019-01-21T09:49:35.877Z,-0.30
2019-01-21T09:52:02.658Z,-0.30
2019-01-21T09:54:29.472Z,-0.30
2019-01-21T09:56:56.230Z,-0.30
2019-01-21T09:59:26.127Z,-0.20
2019-01-21T10:01:53.238Z,-0.20
2019-01-21T10:04:23.868Z,-0.20
2019-01-21T10:06:50.502Z,-0.20
2019-01-21T10:09:17.591Z,-0.20
2019-01-21T10:11:46.653Z,-0.20
2019-01-21T10:14:14.593Z,-0.20
2019-01-21T10:16:41.243Z,-0.20
2019-01-21T10:19:07.884Z,-0.10
2019-01-21T10:21:34.585Z,-0.10
2019-01-21T10:24:01.176Z,-0.10
2019-01-21T10:26:27.817Z,-0.10
2019-01-21T10:28:54.426Z,-0.10
2019-01-21T10:31:21.047Z,-0.10
2019-01-21T10:33:47.734Z,0.00
2019-01-21T10:36:14.419Z,0.00
2019-01-21T10:38:41.088Z,0.00
2019-01-21T10:41:07.682Z,0.00
2019-01-21T10:43:34.322Z,0.00
2019-01-21T10:46:00.937Z,0.10
2019-01-21T10:48:27.675Z,0.10
2019-01-21T10:50:54.432Z,0.10
2019-01-21T10:53:21.031Z,0.10
2019-01-21T10:55:47.986Z,0.10
2019-01-21T10:58:14.871Z,0.20
2019-01-21T11:00:41.480Z,0.20
2019-01-21T11:03:08.114Z,0.20
2019-01-21T11:05:36.008Z,0.20
2019-01-21T11:08:02.747Z,0.20
2019-01-21T11:10:29.403Z,0.30
2019-01-21T11:12:56.017Z,0.30
2019-01-21T11:15:22.850Z,0.30
2019-01-21T11:17:51.301Z,0.30
2019-01-21T11:20:18.203Z,0.30
2019-01-21T11:22:44.953Z,0.40
2019-01-21T11:25:11.595Z,0.40
2019-01-21T11:27:38.233Z,0.40
2019-01-21T11:30:05.176Z,0.50
2019-01-21T11:32:32.143Z,0.50
2019-01-21T11:34:58.825Z,0.50
2019-01-21T11:37:26.813Z,0.50
2019-01-21T11:39:53.556Z,0.60
2019-01-21T11:42:20.789Z,0.60
2019-01-21T11:44:47.620Z,0.60
2019-01-21T11:47:14.337Z,0.60
2019-01-21T11:49:41.098Z,0.70
2019-01-21T11:52:09.223Z,0.70
2019-01-21T11:54:35.961Z,0.50
2019-01-21T11:57:04.365Z,0.80
2019-01-21T11:59:31.156Z,0.80
2019-01-21T12:01:59.074Z,0.80
2019-01-21T12:04:25.835Z,0.90
2019-01-21T12:06:52.915Z,0.90
2019-01-21T12:09:19.665Z,0.90
2019-01-21T12:11:46.408Z,0.90
2019-01-21T12:14:13.137Z,0.90
2019-01-21T12:16:41.661Z,1.00
2019-01-21T12:19:08.187Z,1.00
2019-01-21T12:21:34.821Z,1.00
2019-01-21T12:24:01.736Z,1.10
2019-01-21T12:26:28.868Z,1.10
2019-01-21T12:28:55.702Z,1.10
2019-01-21T12:31:22.486Z,1.20
2019-01-21T12:33:49.322Z,1.20
2019-01-21T12:36:16.058Z,1.20
2019-01-21T12:38:42.745Z,1.30
2019-01-21T12:41:09.768Z,1.30
2019-01-21T12:43:36.388Z,1.30
2019-01-21T12:46:04.252Z,1.40
2019-01-21T12:48:30.878Z,1.40
2019-01-21T12:50:57.629Z,1.40
2019-01-21T12:53:24.228Z,1.50
2019-01-21T12:55:51.251Z,1.50
2019-01-21T12:58:19.815Z,1.50
2019-01-21T13:00:46.556Z,1.50
2019-01-21T13:03:13.295Z,1.60
2019-01-21T13:05:39.957Z,1.60
2019-01-21T13:08:06.737Z,1.60
2019-01-21T13:10:33.520Z,1.70
2019-01-21T13:13:00.494Z,1.70
2019-01-21T13:15:27.295Z,1.70
2019-01-21T13:17:53.837Z,1.70
2019-01-21T13:20:21.809Z,1.80
2019-01-21T13:22:51.657Z,1.80
2019-01-21T13:25:17.135Z,1.80
2019-01-21T13:27:43.881Z,1.80
2019-01-21T13:30:10.607Z,1.90
2019-01-21T13:32:37.909Z,1.70
2019-01-21T13:35:05.163Z,1.90
2019-01-21T13:37:33.090Z,1.90
2019-01-21T13:39:59.717Z,2.00
2019-01-21T13:42:26.457Z,2.00
2019-01-21T13:44:54.799Z,2.00
2019-01-21T13:47:21.679Z,2.10
2019-01-21T13:49:50.185Z,2.10
2019-01-21T13:52:18.699Z,2.10
2019-01-21T13:54:45.319Z,2.10
2019-01-21T13:57:12.123Z,2.10
2019-01-21T13:59:39.083Z,2.20
2019-01-21T14:02:05.755Z,2.20
2019-01-21T14:04:34.187Z,2.20
2019-01-21T14:07:00.975Z,2.20
2019-01-21T14:09:27.733Z,1.80
2019-01-21T14:11:54.630Z,2.30
2019-01-21T14:14:21.369Z,2.30
2019-01-21T14:16:48.427Z,2.30
2019-01-21T14:19:15.221Z,2.40
2019-01-21T14:21:42.264Z,2.40
2019-01-21T14:24:09.160Z,2.40
2019-01-21T14:26:36.408Z,2.40
2019-01-21T14:29:03.164Z,2.50
2019-01-21T14:31:29.834Z,2.50
2019-01-21T14:33:56.529Z,2.40
2019-01-21T14:36:23.285Z,2.50
2019-01-21T14:38:51.144Z,2.50
2019-01-21T14:41:18.005Z,2.50
2019-01-21T14:43:44.772Z,2.60
2019-01-21T14:46:11.528Z,2.60
2019-01-21T14:48:38.539Z,2.60
2019-01-21T14:51:05.266Z,2.60
2019-01-21T14:53:32.204Z,2.60
2019-01-21T14:55:59.214Z,2.70
2019-01-21T14:58:25.988Z,2.70
2019-01-21T15:00:52.920Z,2.70
2019-01-21T15:03:20.196Z,2.70
2019-01-21T15:05:47.119Z,2.70
2019-01-21T15:08:13.777Z,2.50
2019-01-21T15:10:40.938Z,2.70
2019-01-21T15:13:07.915Z,2.80
2019-01-21T15:15:34.603Z,2.80
2019-01-21T15:18:01.380Z,2.80
2019-01-21T15:20:28.614Z,2.80
2019-01-21T15:22:55.330Z,2.80
2019-01-21T15:25:22.121Z,2.80
2019-01-21T15:27:49.172Z,2.70
2019-01-21T15:30:16.206Z,2.90
2019-01-21T15:32:43.117Z,2.90
2019-01-21T15:35:10.693Z,2.90
2019-01-21T15:37:37.303Z,2.90
2019-01-21T15:40:04.618Z,2.90
2019-01-21T15:42:31.572Z,2.50
2019-01-21T15:44:58.613Z,2.90
2019-01-21T15:47:25.607Z,2.90
2019-01-21T15:49:52.479Z,2.90
2019-01-21T15:52:19.169Z,2.90
2019-01-21T15:54:45.902Z,3.00
2019-01-21T15:57:12.695Z,3.00
2019-01-21T15:59:39.500Z,3.00
2019-01-21T16:02:07.252Z,3.00
2019-01-21T16:04:34.576Z,3.00
2019-01-21T16:07:01.445Z,3.00
2019-01-21T16:09:28.575Z,3.00
2019-01-21T16:11:55.399Z,3.00
2019-01-21T16:14:22.566Z,3.00
2019-01-21T16:16:51.053Z,3.00
2019-01-21T16:19:17.693Z,3.00
2019-01-21T16:21:44.579Z,3.00
2019-01-21T16:24:11.360Z,3.00
2019-01-21T16:26:38.227Z,3.00
2019-01-21T16:29:05.065Z,3.00
2019-01-21T16:31:31.963Z,3.00
2019-01-21T16:33:59.948Z,3.00
2019-01-21T16:36:27.827Z,3.00
2019-01-21T16:38:54.577Z,3.00
2019-01-21T16:41:21.312Z,3.00
2019-01-21T16:43:48.067Z,3.00
2019-01-21T16:46:14.713Z,3.00
2019-01-21T16:48:41.544Z,3.00
2019-01-21T16:51:08.143Z,3.00
2019-01-21T16:53:34.953Z,2.80
2019-01-21T16:56:01.860Z,3.00
2019-01-21T16:58:28.577Z,3.00
2019-01-21T17:00:55.407Z,3.00
2019-01-21T17:03:22.212Z,3.00
2019-01-21T17:05:50.484Z,2.80
2019-01-21T17:08:17.177Z,3.00
2019-01-21T17:10:43.792Z,2.90
2019-01-21T17:13:10.483Z,2.90
2019-01-21T17:15:37.223Z,2.90
2019-01-21T17:18:04.190Z,2.90
2019-01-21T17:20:30.839Z,2.90
2019-01-21T17:22:57.659Z,2.90
2019-01-21T17:25:26.349Z,2.90
2019-01-21T17:27:53.625Z,2.90
2019-01-21T17:30:20.282Z,2.90
2019-01-21T17:32:47.027Z,2.90
2019-01-21T17:35:13.765Z,2.90
2019-01-21T17:37:40.465Z,2.90
2019-01-21T17:40:07.708Z,2.80
2019-01-21T17:42:34.416Z,2.80
2019-01-21T17:45:02.373Z,2.80
2019-01-21T17:47:30.343Z,2.80
2019-01-21T17:49:57.238Z,2.80
2019-01-21T17:52:24.305Z,2.80
2019-01-21T17:54:52.476Z,2.80
2019-01-21T17:57:19.108Z,2.80
2019-01-21T17:59:45.843Z,2.80
2019-01-21T18:02:12.799Z,2.80
2019-01-21T18:04:42.284Z,2.70
2019-01-21T18:07:11.570Z,2.70
2019-01-21T18:09:38.184Z,2.70
2019-01-21T18:12:05.212Z,2.70
2019-01-21T18:14:33.063Z,2.70
2019-01-21T18:16:59.798Z,2.70
2019-01-21T18:19:26.456Z,2.70
2019-01-21T18:21:53.254Z,2.70
2019-01-21T18:24:21.116Z,2.70
2019-01-21T18:26:47.897Z,2.50
2019-01-21T18:29:14.850Z,2.60
2019-01-21T18:31:41.790Z,2.30
2019-01-21T18:34:08.563Z,2.30
2019-01-21T18:36:35.167Z,2.60
2019-01-21T18:39:02.090Z,2.60
2019-01-21T18:41:29.038Z,2.60
2019-01-21T18:43:56.110Z,2.60
2019-01-21T18:46:23.166Z,2.60
2019-01-21T18:48:49.928Z,2.50
2019-01-21T18:51:16.614Z,2.50
2019-01-21T18:53:43.366Z,2.50
2019-01-21T18:56:11.284Z,2.50
2019-01-21T18:58:37.973Z,2.50
2019-01-21T19:01:04.707Z,2.50
2019-01-21T19:03:33.679Z,2.50
2019-01-21T19:06:01.579Z,2.50
2019-01-21T19:08:28.206Z,2.40
2019-01-21T19:10:55.107Z,2.30
2019-01-21T19:13:22.131Z,2.40
2019-01-21T19:15:48.917Z,2.40
2019-01-21T19:18:17.131Z,2.40
2019-01-21T19:20:43.919Z,2.40
2019-01-21T19:23:10.554Z,2.40
2019-01-21T19:25:37.362Z,2.40
2019-01-21T19:28:04.194Z,2.30
2019-01-21T19:30:31.028Z,2.30
2019-01-21T19:32:57.619Z,2.30
2019-01-21T19:35:24.294Z,2.30
2019-01-21T19:37:52.987Z,2.30
2019-01-21T19:40:19.748Z,2.30
2019-01-21T19:42:46.301Z,2.30
2019-01-21T19:45:14.914Z,2.30
2019-01-21T19:47:42.801Z,2.20
2019-01-21T19:50:09.782Z,2.20
2019-01-21T19:52:36.440Z,2.20
2019-01-21T19:55:03.156Z,2.20
2019-01-21T19:57:29.776Z,2.20
2019-01-21T19:59:56.503Z,2.20
2019-01-21T20:02:23.483Z,2.20
2019-01-21T20:04:50.180Z,2.20
2019-01-21T20:07:18.741Z,2.20
2019-01-21T20:09:46.205Z,2.10
2019-01-21T20:12:12.838Z,2.10
2019-01-21T20:14:39.585Z,2.10
2019-01-21T20:17:06.227Z,2.10
2019-01-21T20:19:33.127Z,2.10
2019-01-21T20:21:59.819Z,2.10
2019-01-21T20:24:26.630Z,2.10
2019-01-21T20:26:53.336Z,2.10
2019-01-21T20:29:20.073Z,2.10
2019-01-21T20:31:46.825Z,1.70
2019-01-21T20:34:13.882Z,2.00
2019-01-21T20:36:40.484Z,2.00
2019-01-21T20:39:07.222Z,1.80
2019-01-21T20:41:33.950Z,2.00
2019-01-21T20:44:00.659Z,2.00
2019-01-21T20:46:27.423Z,2.00
2019-01-21T20:48:54.036Z,2.00
2019-01-21T20:51:22.651Z,2.00
2019-01-21T20:53:49.305Z,2.00
2019-01-21T20:56:15.986Z,2.00
2019-01-21T20:58:42.903Z,2.00
2019-01-21T21:01:09.589Z,2.00
2019-01-21T21:03:36.214Z,2.00
2019-01-21T21:06:03.150Z,2.00
2019-01-21T21:08:29.833Z,1.90
2019-01-21T21:10:58.181Z,1.90
2019-01-21T21:13:25.424Z,1.90
2019-01-21T21:15:52.273Z,1.90
2019-01-21T21:18:19.320Z,1.90
2019-01-21T21:20:46.206Z,1.90
2019-01-21T21:23:13.756Z,1.90
2019-01-21T21:25:40.644Z,1.90
2019-01-21T21:28:09.271Z,1.90
2019-01-21T21:30:36.572Z,1.90
2019-01-21T21:33:03.769Z,1.90
2019-01-21T21:35:30.610Z,1.90
2019-01-21T21:37:57.446Z,1.90
2019-01-21T21:40:24.291Z,1.90
2019-01-21T21:42:51.026Z,1.90
2019-01-21T21:45:17.772Z,1.80
2019-01-21T21:47:46.533Z,1.90
2019-01-21T21:50:13.723Z,1.80
2019-01-21T21:52:41.080Z,1.90
2019-01-21T21:55:07.800Z,1.80
2019-01-21T21:57:34.762Z,1.90
2019-01-21T22:00:01.723Z,1.80
2019-01-21T22:02:28.619Z,1.80
2019-01-21T22:04:55.505Z,1.80
2019-01-21T22:07:22.582Z,1.80
2019-01-21T22:09:49.313Z,1.80
2019-01-21T22:12:16.099Z,1.80
2019-01-21T22:14:42.907Z,1.80
2019-01-21T22:17:09.749Z,1.80
2019-01-21T22:19:36.659Z,1.80
2019-01-21T22:22:03.393Z,1.80
2019-01-21T22:24:30.299Z,1.80
2019-01-21T22:26:57.026Z,1.80
2019-01-21T22:29:23.690Z,1.80
2019-01-21T22:31:50.452Z,1.80
2019-01-21T22:34:17.362Z,1.80
2019-01-21T22:36:44.217Z,1.70
2019-01-21T22:39:12.961Z,1.70
2019-01-21T22:41:39.623Z,1.70
2019-01-21T22:44:09.593Z,1.70
2019-01-21T22:46:36.803Z,1.70
2019-01-21T22:49:03.907Z,1.70
2019-01-21T22:51:30.742Z,1.70
2019-01-21T22:53:57.389Z,1.70
2019-01-21T22:56:25.981Z,1.70
2019-01-21T22:58:52.616Z,1.70
2019-01-21T23:01:19.324Z,1.70
2019-01-21T23:03:46.564Z,1.70
2019-01-21T23:06:13.670Z,1.70
2019-01-21T23:08:40.290Z,1.70
2019-01-21T23:11:08.394Z,1.70
2019-01-21T23:13:35.096Z,1.30
2019-01-21T23:16:01.705Z,1.70
2019-01-21T23:18:28.592Z,1.70
2019-01-21T23:20:55.336Z,1.70
2019-01-21T23:23:22.676Z,1.70
2019-01-21T23:25:49.256Z,1.70
2019-01-21T23:28:16.059Z,1.70
2019-01-21T23:30:44.489Z,1.70
2019-01-21T23:33:11.226Z,1.70
2019-01-21T23:35:37.980Z,1.70
2019-01-21T23:38:04.714Z,1.70
2019-01-21T23:40:31.507Z,1.60
2019-01-21T23:42:58.250Z,1.60
2019-01-21T23:45:26.778Z,1.60
2019-01-21T23:47:53.357Z,1.70
2019-01-21T23:50:20.590Z,1.60
2019-01-21T23:52:48.020Z,1.60
2019-01-21T23:55:14.918Z,1.40
2019-01-21T23:57:41.642Z,1.60
